Time;durP1;ratioP1;P1;durP2;ratioP2;P2;SDS_P1;SDS_P2;PMS_P1;PMS_P2;Temp;Humidity;BMP_temperature;BMP_pressure;BME280_temperature;BME280_humidity;BME280_pressure;Samples;Min_cycle;Max_cycle;Signal;HPM_P1;HPM_P2
2023/10/30 00:02:04;;;;;;;;;;;13.30;99.90;;;;;;5113811;27;20525;-80
2023/10/30 00:04:33;;;;;;;;;;;13.30;99.90;;;;;;5114559;27;20621;-80
2023/10/30 00:06:59;;;;;;;;;;;13.20;99.90;;;;;;5117699;27;20025;-80
2023/10/30 00:09:26;;;;;;;;;;;13.30;99.90;;;;;;5121705;27;19978;-80
2023/10/30 00:11:54;;;;;;;;;;;13.20;99.90;;;;;;5123961;27;19994;-80
2023/10/30 00:14:20;;;;;;;;;;;13.20;99.90;;;;;;5121602;27;19982;-80
2023/10/30 00:16:47;;;;;;;;;;;13.20;99.90;;;;;;5117234;27;19999;-81
2023/10/30 00:19:14;;;;;;;;;;;13.20;99.90;;;;;;5126642;27;20022;-80
2023/10/30 00:21:42;;;;;;;;;;;13.20;99.90;;;;;;5121013;27;19979;-80
2023/10/30 00:24:09;;;;;;;;;;;13.20;99.90;;;;;;5119376;27;20102;-79
2023/10/30 00:26:36;;;;;;;;;;;13.20;99.90;;;;;;5119611;27;19994;-81
2023/10/30 00:29:03;;;;;;;;;;;13.20;99.90;;;;;;5120317;27;20327;-81
2023/10/30 00:31:29;;;;;;;;;;;13.20;99.90;;;;;;5117357;27;20000;-80
2023/10/30 00:33:56;;;;;;;;;;;13.20;99.90;;;;;;5119439;27;20439;-80
2023/10/30 00:36:23;;;;;;;;;;;13.20;99.90;;;;;;5119830;27;19991;-78
2023/10/30 00:38:51;;;;;;;;;;;13.20;99.90;;;;;;5115420;27;20558;-80
2023/10/30 00:41:18;;;;;;;;;;;13.20;99.90;;;;;;5113584;27;19982;-80
2023/10/30 00:43:44;;;;;;;;;;;13.20;99.90;;;;;;5118100;27;20076;-80
2023/10/30 00:46:11;;;;;;;;;;;13.20;99.90;;;;;;5113323;27;20009;-81
2023/10/30 00:48:37;;;;;;;;;;;13.10;99.90;;;;;;5123870;27;19998;-81
2023/10/30 00:51:04;;;;;;;;;;;13.10;99.90;;;;;;5119500;27;19974;-79
2023/10/30 00:53:31;;;;;;;;;;;13.10;99.90;;;;;;5113758;27;20524;-81
2023/10/30 00:55:59;;;;;;;;;;;13.10;99.90;;;;;;5117640;27;20545;-79
2023/10/30 00:58:26;;;;;;;;;;;13.10;99.90;;;;;;5117342;27;19978;-80
2023/10/30 01:00:52;;;;;;;;;;;13.10;99.90;;;;;;5115349;27;20002;-80
2023/10/30 01:03:23;;;;;;;;;;;13.10;99.90;;;;;;5110155;27;19995;-81
2023/10/30 01:05:56;;;;;;;;;;;13.10;99.90;;;;;;5119727;27;20004;-80
2023/10/30 01:08:22;;;;;;;;;;;13.10;99.90;;;;;;5122250;27;20498;-81
2023/10/30 01:10:49;;;;;;;;;;;13.10;99.90;;;;;;5116112;27;20514;-80
2023/10/30 01:13:17;;;;;;;;;;;13.00;99.90;;;;;;5119011;27;19998;-80
2023/10/30 01:15:44;;;;;;;;;;;13.10;99.90;;;;;;5113819;27;20305;-81
2023/10/30 01:18:11;;;;;;;;;;;13.10;99.90;;;;;;5116297;27;20009;-81
2023/10/30 01:20:38;;;;;;;;;;;13.10;99.90;;;;;;5119276;27;20661;-80
2023/10/30 01:23:05;;;;;;;;;;;13.00;99.90;;;;;;5118130;27;20075;-80
2023/10/30 01:25:32;;;;;;;;;;;13.00;99.90;;;;;;5112250;27;20061;-81
2023/10/30 01:27:58;;;;;;;;;;;13.00;99.90;;;;;;5115151;27;19997;-80
2023/10/30 01:30:26;;;;;;;;;;;13.00;99.90;;;;;;5119775;27;19979;-80
2023/10/30 01:32:53;;;;;;;;;;;13.00;99.90;;;;;;5115308;27;20506;-80
2023/10/30 01:35:19;;;;;;;;;;;13.00;99.90;;;;;;5112884;27;19987;-80
2023/10/30 01:37:46;;;;;;;;;;;13.00;99.90;;;;;;5119758;27;19988;-80
2023/10/30 01:40:13;;;;;;;;;;;13.00;99.90;;;;;;5117332;27;19975;-81
2023/10/30 01:42:39;;;;;;;;;;;12.90;99.90;;;;;;5118674;27;20729;-82
2023/10/30 01:45:06;;;;;;;;;;;13.00;99.90;;;;;;5112417;27;19979;-80
2023/10/30 01:47:34;;;;;;;;;;;13.00;99.90;;;;;;5115696;27;19998;-80
2023/10/30 01:50:02;;;;;;;;;;;12.90;99.90;;;;;;5115454;27;20088;-82
2023/10/30 01:52:30;;;;;;;;;;;12.90;99.90;;;;;;5120442;27;19991;-81
2023/10/30 01:54:57;;;;;;;;;;;13.00;99.90;;;;;;5110941;27;20105;-81
2023/10/30 01:57:25;;;;;;;;;;;12.90;99.90;;;;;;5117072;27;19978;-81
2023/10/30 01:59:52;;;;;;;;;;;12.90;99.90;;;;;;5110899;27;20447;-81
2023/10/30 02:02:19;;;;;;;;;;;12.90;99.90;;;;;;5111365;27;20097;-82
2023/10/30 02:04:47;;;;;;;;;;;12.90;99.90;;;;;;5115154;27;19982;-81
2023/10/30 02:07:13;;;;;;;;;;;12.90;99.90;;;;;;5112952;27;19990;-81
2023/10/30 02:09:40;;;;;;;;;;;12.90;99.90;;;;;;5120977;27;20428;-82
2023/10/30 02:12:07;;;;;;;;;;;12.90;99.90;;;;;;5119953;27;20834;-79
2023/10/30 02:14:34;;;;;;;;;;;12.90;99.90;;;;;;5117006;27;19974;-81
2023/10/30 02:17:00;;;;;;;;;;;12.90;99.90;;;;;;5111830;27;20039;-81
2023/10/30 02:19:28;;;;;;;;;;;12.80;99.90;;;;;;5119258;27;19974;-80
2023/10/30 02:21:56;;;;;;;;;;;12.90;99.90;;;;;;5113700;27;20409;-80
2023/10/30 02:24:24;;;;;;;;;;;12.90;99.90;;;;;;5117052;27;19983;-80
2023/10/30 02:26:52;;;;;;;;;;;12.80;99.90;;;;;;5114318;27;19979;-80
2023/10/30 02:29:18;;;;;;;;;;;12.80;99.90;;;;;;5114753;27;19974;-81
2023/10/30 02:31:45;;;;;;;;;;;12.80;99.90;;;;;;5114281;27;19995;-81
2023/10/30 02:34:12;;;;;;;;;;;12.80;99.90;;;;;;5111224;27;20073;-81
2023/10/30 02:36:39;;;;;;;;;;;12.80;99.90;;;;;;5112599;27;20427;-81
2023/10/30 02:39:07;;;;;;;;;;;12.80;99.90;;;;;;5111135;27;19978;-79
2023/10/30 02:41:33;;;;;;;;;;;12.80;99.90;;;;;;5116570;27;19978;-81
2023/10/30 02:44:02;;;;;;;;;;;12.80;99.90;;;;;;5119351;27;19979;-81
2023/10/30 02:46:28;;;;;;;;;;;12.80;99.90;;;;;;5113646;27;19998;-81
2023/10/30 02:48:55;;;;;;;;;;;12.80;99.90;;;;;;5118858;27;19994;-80
2023/10/30 02:51:22;;;;;;;;;;;12.80;99.90;;;;;;5111714;27;19982;-81
2023/10/30 02:53:48;;;;;;;;;;;12.80;99.90;;;;;;5116639;27;20694;-81
2023/10/30 02:56:15;;;;;;;;;;;12.80;99.90;;;;;;5117735;27;19981;-81
2023/10/30 02:58:41;;;;;;;;;;;12.80;99.90;;;;;;5109186;27;19982;-82
2023/10/30 03:01:10;;;;;;;;;;;12.80;99.90;;;;;;5110861;27;19998;-81
2023/10/30 03:03:36;;;;;;;;;;;12.80;99.90;;;;;;5111331;27;19991;-81
2023/10/30 03:06:03;;;;;;;;;;;12.80;99.90;;;;;;5112058;27;20070;-81
2023/10/30 03:08:29;;;;;;;;;;;12.70;99.90;;;;;;5116667;27;20681;-81
2023/10/30 03:10:56;;;;;;;;;;;12.70;99.90;;;;;;5115458;27;20438;-81
2023/10/30 03:13:23;;;;;;;;;;;12.70;99.90;;;;;;5115484;27;19990;-80
2023/10/30 03:15:50;;;;;;;;;;;12.70;99.90;;;;;;5115593;27;20717;-81
2023/10/30 03:18:18;;;;;;;;;;;12.70;99.90;;;;;;5115405;27;20445;-81
2023/10/30 03:20:44;;;;;;;;;;;12.70;99.90;;;;;;5119778;27;19974;-81
2023/10/30 03:23:11;;;;;;;;;;;12.70;99.90;;;;;;5124318;27;19998;-80
2023/10/30 03:25:38;;;;;;;;;;;12.70;99.90;;;;;;5121479;27;20065;-82
2023/10/30 03:28:05;;;;;;;;;;;12.70;99.90;;;;;;5117798;27;19991;-81
2023/10/30 03:30:34;;;;;;;;;;;12.70;99.90;;;;;;5114408;27;20891;-81
2023/10/30 03:33:01;;;;;;;;;;;12.70;99.90;;;;;;5117177;27;19998;-80
2023/10/30 03:35:29;;;;;;;;;;;12.70;99.90;;;;;;5117985;27;19974;-81
2023/10/30 03:37:55;;;;;;;;;;;12.70;99.90;;;;;;5119923;27;19974;-80
2023/10/30 03:40:22;;;;;;;;;;;12.70;99.90;;;;;;5120057;27;20021;-81
2023/10/30 03:42:49;;;;;;;;;;;12.70;99.90;;;;;;5121712;27;19999;-81
2023/10/30 03:45:15;;;;;;;;;;;12.60;99.90;;;;;;5117043;27;19986;-81
2023/10/30 03:47:43;;;;;;;;;;;12.60;99.90;;;;;;5113886;27;20683;-80
2023/10/30 03:50:10;;;;;;;;;;;12.60;99.90;;;;;;5117697;27;20048;-81
2023/10/30 03:52:38;;;;;;;;;;;12.60;99.90;;;;;;5118040;27;19997;-81
2023/10/30 03:55:05;;;;;;;;;;;12.60;99.90;;;;;;5117774;27;20617;-81
2023/10/30 03:57:32;;;;;;;;;;;12.60;99.90;;;;;;5115689;27;19985;-80
2023/10/30 03:59:58;;;;;;;;;;;12.60;99.90;;;;;;5119799;27;19985;-80
2023/10/30 04:02:25;;;;;;;;;;;12.60;99.90;;;;;;5114320;27;20001;-80
2023/10/30 04:04:52;;;;;;;;;;;12.60;99.90;;;;;;5115346;27;20609;-80
2023/10/30 04:07:19;;;;;;;;;;;12.60;99.90;;;;;;5119392;27;19990;-80
2023/10/30 04:09:47;;;;;;;;;;;12.60;99.90;;;;;;5112024;27;20389;-80
2023/10/30 04:12:14;;;;;;;;;;;12.60;99.90;;;;;;5118313;27;19999;-80
2023/10/30 04:14:40;;;;;;;;;;;12.50;99.90;;;;;;5119272;27;19982;-81
2023/10/30 04:17:07;;;;;;;;;;;12.60;99.90;;;;;;5111180;27;19997;-81
2023/10/30 04:19:33;;;;;;;;;;;12.60;99.90;;;;;;5117763;27;19982;-80
2023/10/30 04:22:00;;;;;;;;;;;12.60;99.90;;;;;;5120514;27;20002;-80
2023/10/30 04:24:27;;;;;;;;;;;12.50;99.90;;;;;;5116978;27;19978;-81
2023/10/30 04:26:54;;;;;;;;;;;12.50;99.90;;;;;;5116954;27;19979;-81
2023/10/30 04:29:21;;;;;;;;;;;12.50;99.90;;;;;;5119480;27;19998;-81
2023/10/30 04:31:48;;;;;;;;;;;12.50;99.90;;;;;;5102152;27;20006;-79
2023/10/30 04:34:14;;;;;;;;;;;12.50;99.90;;;;;;5120219;27;19979;-79
2023/10/30 04:36:41;;;;;;;;;;;12.50;99.90;;;;;;5121351;27;19982;-81
2023/10/30 04:39:10;;;;;;;;;;;12.50;99.90;;;;;;5111911;28;19979;-81
2023/10/30 04:41:37;;;;;;;;;;;12.50;99.90;;;;;;5112191;27;20554;-80
2023/10/30 04:44:06;;;;;;;;;;;12.50;99.90;;;;;;5115423;27;19978;-80
2023/10/30 04:46:32;;;;;;;;;;;12.50;99.90;;;;;;5117611;27;19995;-81
2023/10/30 04:48:59;;;;;;;;;;;12.50;99.90;;;;;;5121793;27;19994;-81
2023/10/30 04:51:26;;;;;;;;;;;12.50;99.90;;;;;;5115567;27;20358;-79
2023/10/30 04:53:54;;;;;;;;;;;12.50;99.90;;;;;;5114748;27;20791;-80
2023/10/30 04:56:20;;;;;;;;;;;12.50;99.90;;;;;;5118691;27;20548;-81
2023/10/30 04:58:47;;;;;;;;;;;12.50;99.90;;;;;;5118763;27;19986;-81
2023/10/30 05:01:15;;;;;;;;;;;12.50;99.90;;;;;;5117435;27;20089;-81
2023/10/30 05:03:41;;;;;;;;;;;12.40;99.90;;;;;;5118888;27;20002;-81
2023/10/30 05:06:08;;;;;;;;;;;12.50;99.90;;;;;;5119546;27;20468;-81
2023/10/30 05:08:38;;;;;;;;;;;12.40;99.90;;;;;;5119795;27;20100;-81
2023/10/30 05:11:04;;;;;;;;;;;12.50;99.90;;;;;;5122673;27;20345;-80
2023/10/30 05:13:31;;;;;;;;;;;12.40;99.90;;;;;;5118649;27;19997;-81
2023/10/30 05:15:58;;;;;;;;;;;12.40;99.90;;;;;;5120691;27;20071;-81
2023/10/30 05:18:26;;;;;;;;;;;12.40;99.90;;;;;;5117350;27;19985;-81
2023/10/30 05:20:52;;;;;;;;;;;12.50;99.90;;;;;;5113861;27;20067;-80
2023/10/30 05:23:19;;;;;;;;;;;12.40;99.90;;;;;;5120257;27;19997;-80
2023/10/30 05:25:46;;;;;;;;;;;12.40;99.90;;;;;;5114357;27;20061;-80
2023/10/30 05:28:12;;;;;;;;;;;12.40;99.90;;;;;;5121277;27;19998;-80
2023/10/30 05:30:39;;;;;;;;;;;12.40;99.90;;;;;;5119702;27;19998;-80
2023/10/30 05:33:05;;;;;;;;;;;12.40;99.90;;;;;;5123879;27;19998;-80
2023/10/30 05:35:33;;;;;;;;;;;12.40;99.90;;;;;;5116467;27;20013;-80
2023/10/30 05:38:00;;;;;;;;;;;12.40;99.90;;;;;;5112536;27;19979;-80
2023/10/30 05:40:27;;;;;;;;;;;12.40;99.90;;;;;;5111768;27;20423;-79
2023/10/30 05:42:53;;;;;;;;;;;12.40;99.90;;;;;;5112026;27;20379;-80
2023/10/30 05:45:20;;;;;;;;;;;12.40;99.90;;;;;;5113827;27;19975;-79
2023/10/30 05:47:46;;;;;;;;;;;12.30;99.90;;;;;;5109673;27;20518;-80
2023/10/30 05:50:13;;;;;;;;;;;12.40;99.90;;;;;;5113558;27;20063;-81
2023/10/30 05:52:41;;;;;;;;;;;12.40;99.90;;;;;;5118207;27;20015;-81
2023/10/30 05:55:08;;;;;;;;;;;12.40;99.90;;;;;;5113115;27;19978;-82
2023/10/30 05:57:37;;;;;;;;;;;12.30;99.90;;;;;;5117389;27;20560;-82
2023/10/30 06:00:05;;;;;;;;;;;12.30;99.90;;;;;;5114433;27;20545;-82
2023/10/30 06:02:32;;;;;;;;;;;12.30;99.90;;;;;;5116717;27;19998;-82
2023/10/30 06:04:59;;;;;;;;;;;12.30;99.90;;;;;;5110638;27;19982;-82
2023/10/30 06:07:25;;;;;;;;;;;12.30;99.90;;;;;;5119242;27;19974;-82
2023/10/30 06:09:55;;;;;;;;;;;12.20;99.90;;;;;;5120836;27;20001;-82
2023/10/30 06:12:21;;;;;;;;;;;12.30;99.90;;;;;;5112183;27;19991;-82
2023/10/30 06:14:48;;;;;;;;;;;12.30;99.90;;;;;;5115117;27;19974;-82
2023/10/30 06:17:15;;;;;;;;;;;12.30;99.90;;;;;;5112572;27;20086;-82
2023/10/30 06:19:41;;;;;;;;;;;12.30;99.90;;;;;;5113453;27;19974;-83
2023/10/30 06:22:08;;;;;;;;;;;12.30;99.90;;;;;;5115598;27;20524;-82
2023/10/30 06:24:35;;;;;;;;;;;12.20;99.90;;;;;;5114161;27;21292;-82
2023/10/30 06:27:03;;;;;;;;;;;12.30;99.90;;;;;;5111477;27;19978;-83
2023/10/30 06:29:30;;;;;;;;;;;12.20;99.90;;;;;;5119216;27;19990;-83
2023/10/30 06:31:56;;;;;;;;;;;12.30;99.90;;;;;;5119268;27;20450;-82
2023/10/30 06:34:23;;;;;;;;;;;12.20;99.90;;;;;;5114167;27;19978;-82
2023/10/30 06:36:50;;;;;;;;;;;12.30;99.90;;;;;;5116532;27;19974;-82
2023/10/30 06:39:20;;;;;;;;;;;12.30;99.90;;;;;;5116933;27;19979;-83
2023/10/30 06:41:48;;;;;;;;;;;12.30;99.90;;;;;;5116684;27;20060;-83
2023/10/30 06:44:16;;;;;;;;;;;12.30;99.90;;;;;;5118553;27;19984;-83
2023/10/30 06:46:44;;;;;;;;;;;12.20;99.90;;;;;;5117517;27;20025;-82
2023/10/30 06:49:11;;;;;;;;;;;12.20;99.90;;;;;;5120300;27;20063;-82
2023/10/30 06:51:38;;;;;;;;;;;12.20;99.90;;;;;;5118679;27;20091;-83
2023/10/30 06:54:04;;;;;;;;;;;12.20;99.90;;;;;;5114521;27;20012;-83
2023/10/30 06:56:31;;;;;;;;;;;12.20;99.90;;;;;;5116087;27;19982;-83
2023/10/30 06:58:58;;;;;;;;;;;12.20;99.90;;;;;;5125099;27;19978;-83
2023/10/30 07:01:27;;;;;;;;;;;12.20;99.90;;;;;;5093943;27;20069;-82
2023/10/30 07:03:53;;;;;;;;;;;12.20;99.90;;;;;;5115585;27;20015;-83
2023/10/30 07:06:21;;;;;;;;;;;12.30;99.90;;;;;;5099779;27;20489;-83
2023/10/30 07:08:48;;;;;;;;;;;12.20;99.90;;;;;;5110328;27;20016;-83
2023/10/30 07:11:14;;;;;;;;;;;12.20;99.90;;;;;;5118342;27;19975;-83
2023/10/30 07:13:41;;;;;;;;;;;12.30;99.90;;;;;;5115489;27;21729;-82
2023/10/30 07:16:08;;;;;;;;;;;12.20;99.90;;;;;;5117206;27;20081;-83
2023/10/30 07:18:37;;;;;;;;;;;12.30;99.90;;;;;;5116881;27;20761;-83
2023/10/30 07:21:03;;;;;;;;;;;12.20;99.90;;;;;;5113806;27;19986;-83
2023/10/30 07:23:30;;;;;;;;;;;12.30;99.90;;;;;;5121845;27;20044;-83
2023/10/30 07:25:57;;;;;;;;;;;12.30;99.90;;;;;;5114104;27;20018;-83
2023/10/30 07:28:23;;;;;;;;;;;12.30;99.90;;;;;;5114007;27;20387;-82
2023/10/30 07:30:50;;;;;;;;;;;12.30;99.90;;;;;;5114996;27;20006;-82
2023/10/30 07:33:17;;;;;;;;;;;12.30;99.90;;;;;;5107949;27;20026;-83
2023/10/30 07:35:46;;;;;;;;;;;12.30;99.90;;;;;;5118191;27;20005;-82
2023/10/30 07:38:13;;;;;;;;;;;12.30;99.90;;;;;;5113608;27;19986;-83
2023/10/30 07:40:39;;;;;;;;;;;12.30;99.90;;;;;;5118687;27;19978;-82
2023/10/30 07:43:06;;;;;;;;;;;12.30;99.90;;;;;;5117177;27;20687;-83
2023/10/30 07:45:33;;;;;;;;;;;12.30;99.90;;;;;;5110028;27;19998;-83
2023/10/30 07:47:59;;;;;;;;;;;12.30;99.90;;;;;;5111951;27;20039;-83
2023/10/30 07:50:26;;;;;;;;;;;12.30;99.90;;;;;;5114840;27;20717;-83
2023/10/30 07:52:54;;;;;;;;;;;12.30;99.90;;;;;;5117614;27;20422;-83
2023/10/30 07:55:21;;;;;;;;;;;12.30;99.90;;;;;;5114160;27;20070;-83
2023/10/30 07:57:47;;;;;;;;;;;12.30;99.90;;;;;;5118012;27;19986;-83
2023/10/30 08:00:15;;;;;;;;;;;12.30;99.90;;;;;;5117174;27;19989;-83
2023/10/30 08:02:41;;;;;;;;;;;12.40;99.90;;;;;;5118687;27;19998;-83
2023/10/30 08:05:08;;;;;;;;;;;12.40;99.90;;;;;;5117274;28;19979;-83
2023/10/30 08:07:36;;;;;;;;;;;12.40;99.90;;;;;;5115690;27;20541;-83
2023/10/30 08:10:04;;;;;;;;;;;12.40;99.90;;;;;;5114943;27;20102;-82
2023/10/30 08:12:31;;;;;;;;;;;12.40;99.90;;;;;;5120372;27;20021;-82
2023/10/30 08:14:59;;;;;;;;;;;12.40;99.90;;;;;;5119356;27;19982;-83
2023/10/30 08:17:26;;;;;;;;;;;12.40;99.90;;;;;;5121434;27;20524;-82
2023/10/30 08:19:52;;;;;;;;;;;12.40;99.90;;;;;;5116309;27;19979;-82
2023/10/30 08:22:19;;;;;;;;;;;12.40;99.90;;;;;;5122347;27;19990;-83
2023/10/30 08:24:46;;;;;;;;;;;12.40;99.90;;;;;;5121067;27;19982;-82
2023/10/30 08:27:14;;;;;;;;;;;12.40;99.90;;;;;;5117375;27;20086;-82
2023/10/30 08:29:41;;;;;;;;;;;12.40;99.90;;;;;;5123117;27;20027;-82
2023/10/30 08:32:07;;;;;;;;;;;12.50;99.90;;;;;;5117478;27;20063;-83
2023/10/30 08:34:34;;;;;;;;;;;12.40;99.90;;;;;;5120382;27;19978;-83
2023/10/30 08:37:01;;;;;;;;;;;12.50;99.90;;;;;;5119913;27;19986;-83
2023/10/30 08:39:28;;;;;;;;;;;12.50;99.90;;;;;;5122421;27;20517;-83
2023/10/30 08:41:54;;;;;;;;;;;12.50;99.90;;;;;;5113505;27;20047;-83
2023/10/30 08:44:22;;;;;;;;;;;12.50;99.90;;;;;;5110810;27;19985;-83
2023/10/30 08:46:49;;;;;;;;;;;12.50;99.90;;;;;;5116644;27;20516;-83
2023/10/30 08:49:16;;;;;;;;;;;12.50;99.90;;;;;;5119473;27;19995;-82
2023/10/30 08:51:42;;;;;;;;;;;12.50;99.90;;;;;;5112461;27;19982;-82
2023/10/30 08:54:09;;;;;;;;;;;12.50;99.90;;;;;;5114402;27;19986;-82
2023/10/30 08:56:36;;;;;;;;;;;12.50;99.90;;;;;;5113864;27;19986;-83
2023/10/30 08:59:03;;;;;;;;;;;12.60;99.90;;;;;;5113424;27;19975;-83
2023/10/30 09:01:32;;;;;;;;;;;12.50;99.90;;;;;;5122972;27;20410;-82
2023/10/30 09:03:59;;;;;;;;;;;12.60;99.90;;;;;;5111378;27;20374;-83
2023/10/30 09:06:26;;;;;;;;;;;12.60;99.90;;;;;;5111933;27;20077;-82
2023/10/30 09:08:53;;;;;;;;;;;12.60;99.90;;;;;;5110508;27;20031;-82
2023/10/30 09:11:20;;;;;;;;;;;12.60;99.90;;;;;;5117711;27;20374;-82
2023/10/30 09:13:46;;;;;;;;;;;12.60;99.90;;;;;;5114997;27;19994;-82
2023/10/30 09:16:13;;;;;;;;;;;12.60;99.90;;;;;;5108178;27;20484;-83
2023/10/30 09:18:41;;;;;;;;;;;12.60;99.90;;;;;;5114039;27;19974;-81
2023/10/30 09:21:08;;;;;;;;;;;12.60;99.90;;;;;;5113460;27;19979;-81
2023/10/30 09:23:35;;;;;;;;;;;12.60;99.90;;;;;;5117652;27;20105;-83
2023/10/30 09:26:03;;;;;;;;;;;12.70;99.90;;;;;;5114471;27;20201;-82
2023/10/30 09:28:30;;;;;;;;;;;12.60;99.90;;;;;;5121288;27;19975;-82
2023/10/30 09:30:56;;;;;;;;;;;12.60;99.90;;;;;;5113424;27;20193;-82
2023/10/30 09:33:23;;;;;;;;;;;12.70;99.90;;;;;;5115608;27;20039;-82
2023/10/30 09:35:51;;;;;;;;;;;12.70;99.90;;;;;;5115187;27;19978;-82
2023/10/30 09:38:17;;;;;;;;;;;12.70;99.90;;;;;;5108180;27;19975;-83
2023/10/30 09:40:44;;;;;;;;;;;12.70;99.90;;;;;;5109995;27;19979;-82
2023/10/30 09:43:11;;;;;;;;;;;12.80;99.90;;;;;;5111653;27;20002;-84
2023/10/30 09:45:39;;;;;;;;;;;12.80;99.90;;;;;;5116091;27;19990;-85
2023/10/30 09:48:07;;;;;;;;;;;12.90;99.90;;;;;;5112601;27;19990;-85
2023/10/30 09:50:34;;;;;;;;;;;12.90;99.90;;;;;;5118360;27;19990;-87
2023/10/30 09:53:03;;;;;;;;;;;13.00;99.90;;;;;;5114714;27;20044;-85
2023/10/30 09:55:29;;;;;;;;;;;13.10;99.90;;;;;;5119597;27;20328;-88
2023/10/30 09:57:56;;;;;;;;;;;13.10;99.90;;;;;;5113806;27;20102;-85
2023/10/30 10:00:23;;;;;;;;;;;13.10;99.90;;;;;;5112286;27;20007;-84
2023/10/30 10:02:49;;;;;;;;;;;13.20;99.90;;;;;;5111895;27;20448;-85
2023/10/30 10:05:17;;;;;;;;;;;13.20;99.90;;;;;;5116021;27;19986;-86
2023/10/30 10:07:43;;;;;;;;;;;13.30;99.90;;;;;;5111511;27;19975;-84
2023/10/30 10:10:12;;;;;;;;;;;13.30;99.90;;;;;;5117599;27;19991;-86
2023/10/30 10:12:38;;;;;;;;;;;13.30;99.90;;;;;;5117595;27;19998;-83
2023/10/30 10:15:07;;;;;;;;;;;13.30;99.90;;;;;;5119917;27;19986;-86
2023/10/30 10:17:42;;;;;;;;;;;13.30;99.90;;;;;;5126128;27;20048;-84
2023/10/30 10:20:10;;;;;;;;;;;13.30;99.90;;;;;;5121379;27;20439;-84
2023/10/30 10:22:37;;;;;;;;;;;13.40;99.90;;;;;;5118088;27;20319;-87
2023/10/30 10:25:04;;;;;;;;;;;13.40;99.90;;;;;;5115916;27;20672;-86
2023/10/30 10:27:42;;;;;;;;;;;13.40;99.90;;;;;;5122690;27;20336;-85
2023/10/30 10:30:10;;;;;;;;;;;13.50;99.90;;;;;;5126089;27;19990;-82
2023/10/30 10:32:38;;;;;;;;;;;13.50;99.90;;;;;;5120713;27;19990;-84
2023/10/30 10:35:07;;;;;;;;;;;13.50;99.90;;;;;;5126095;27;20009;-84
2023/10/30 10:37:34;;;;;;;;;;;13.50;99.90;;;;;;5116595;27;20008;-88
2023/10/30 10:40:02;;;;;;;;;;;13.60;99.90;;;;;;5118777;27;20514;-84
2023/10/30 10:42:28;;;;;;;;;;;13.60;99.90;;;;;;5116440;27;20277;-85
2023/10/30 10:44:57;;;;;;;;;;;13.60;99.90;;;;;;5113875;27;20443;-84
2023/10/30 10:47:24;;;;;;;;;;;13.70;99.90;;;;;;5114504;27;19991;-84
2023/10/30 10:49:51;;;;;;;;;;;13.70;99.90;;;;;;5117149;27;19989;-86
2023/10/30 10:52:19;;;;;;;;;;;13.70;99.90;;;;;;5119481;27;20420;-85
2023/10/30 10:54:47;;;;;;;;;;;13.70;99.90;;;;;;5114768;27;20018;-83
2023/10/30 10:57:16;;;;;;;;;;;13.80;99.90;;;;;;5117075;27;20067;-89
2023/10/30 10:59:45;;;;;;;;;;;13.80;99.90;;;;;;5114119;27;19975;-89
2023/10/30 11:02:20;;;;;;;;;;;13.80;99.90;;;;;;5110813;27;20085;-86
2023/10/30 11:04:47;;;;;;;;;;;13.80;99.90;;;;;;5113005;27;19985;-87
2023/10/30 11:07:15;;;;;;;;;;;13.80;99.90;;;;;;5111519;27;19985;-88
2023/10/30 11:09:45;;;;;;;;;;;13.80;99.90;;;;;;5114332;27;20090;-88
2023/10/30 11:12:20;;;;;;;;;;;13.80;99.90;;;;;;5109895;27;19990;-85
2023/10/30 11:14:50;;;;;;;;;;;13.80;99.90;;;;;;5118218;27;20401;-88
2023/10/30 11:17:18;;;;;;;;;;;13.80;99.90;;;;;;5114923;27;19990;-86
2023/10/30 11:19:46;;;;;;;;;;;13.80;99.90;;;;;;5113009;27;20073;-89
2023/10/30 11:22:12;;;;;;;;;;;13.80;99.90;;;;;;5115305;27;20506;-86
2023/10/30 11:24:43;;;;;;;;;;;13.80;99.90;;;;;;5120361;27;19978;-86
2023/10/30 11:27:28;;;;;;;;;;;13.90;99.90;;;;;;5121038;27;20195;-83
2023/10/30 11:29:57;;;;;;;;;;;13.80;99.90;;;;;;5113931;27;20346;-86
2023/10/30 11:32:26;;;;;;;;;;;13.80;99.90;;;;;;5112739;27;20006;-86
2023/10/30 11:34:53;;;;;;;;;;;13.80;99.90;;;;;;5115676;27;20001;-87
2023/10/30 11:37:21;;;;;;;;;;;13.90;99.90;;;;;;5117765;27;19974;-88
2023/10/30 11:39:49;;;;;;;;;;;13.90;99.90;;;;;;5115495;27;20378;-85
2023/10/30 11:42:33;;;;;;;;;;;13.90;99.90;;;;;;5111443;27;19994;-85
2023/10/30 11:45:16;;;;;;;;;;;13.90;99.90;;;;;;5110757;27;20028;-85
2023/10/30 11:47:46;;;;;;;;;;;13.90;99.90;;;;;;5109206;27;20467;-87
2023/10/30 11:50:13;;;;;;;;;;;13.90;99.90;;;;;;5117300;27;20077;-89
2023/10/30 11:52:39;;;;;;;;;;;13.90;99.90;;;;;;5109745;27;19994;-86
2023/10/30 11:55:06;;;;;;;;;;;13.90;99.90;;;;;;5113241;27;20070;-84
2023/10/30 11:57:34;;;;;;;;;;;13.90;99.90;;;;;;5114020;27;19975;-88
2023/10/30 12:00:01;;;;;;;;;;;13.90;99.90;;;;;;5118523;27;19981;-85
2023/10/30 12:02:27;;;;;;;;;;;13.90;99.90;;;;;;5111007;27;20426;-88
2023/10/30 12:05:04;;;;;;;;;;;13.90;99.90;;;;;;5113647;27;19989;-86
2023/10/30 12:07:31;;;;;;;;;;;13.90;99.90;;;;;;5115420;27;20312;-86
2023/10/30 12:09:59;;;;;;;;;;;13.90;99.90;;;;;;5109859;27;19982;-87
2023/10/30 12:12:26;;;;;;;;;;;14.00;99.90;;;;;;5114323;27;20026;-87
2023/10/30 12:14:53;;;;;;;;;;;14.00;99.90;;;;;;5110391;27;20638;-86
2023/10/30 12:17:20;;;;;;;;;;;14.00;99.90;;;;;;5111452;27;19995;-85
2023/10/30 12:19:46;;;;;;;;;;;14.00;99.90;;;;;;5114120;27;20490;-87
2023/10/30 12:22:15;;;;;;;;;;;14.00;99.90;;;;;;5114965;27;20378;-87
2023/10/30 12:24:43;;;;;;;;;;;14.00;99.90;;;;;;5112279;27;19979;-85
2023/10/30 12:27:09;;;;;;;;;;;14.00;99.90;;;;;;5116692;27;19979;-86
2023/10/30 12:29:36;;;;;;;;;;;14.00;99.90;;;;;;5114417;27;19982;-85
2023/10/30 12:32:06;;;;;;;;;;;14.00;99.90;;;;;;5112965;27;20002;-85
2023/10/30 12:34:35;;;;;;;;;;;14.00;99.90;;;;;;5110494;27;19981;-88
2023/10/30 12:37:16;;;;;;;;;;;14.00;99.90;;;;;;5113649;27;19975;-84
2023/10/30 12:39:59;;;;;;;;;;;14.10;99.90;;;;;;5115220;27;20775;-86
2023/10/30 12:42:27;;;;;;;;;;;14.10;99.90;;;;;;5111526;27;19990;-89
2023/10/30 12:44:53;;;;;;;;;;;14.10;99.90;;;;;;5115036;27;19989;-89
2023/10/30 12:47:20;;;;;;;;;;;14.10;99.90;;;;;;5116531;27;20485;-86
2023/10/30 12:49:46;;;;;;;;;;;14.10;99.90;;;;;;5112769;27;20052;-85
2023/10/30 12:52:13;;;;;;;;;;;14.10;99.90;;;;;;5113390;27;20400;-85
2023/10/30 12:54:41;;;;;;;;;;;14.10;99.90;;;;;;5115804;27;20018;-86
2023/10/30 12:57:09;;;;;;;;;;;14.10;99.90;;;;;;5115105;27;19982;-87
2023/10/30 12:59:36;;;;;;;;;;;14.10;99.90;;;;;;5107115;27;20073;-87
2023/10/30 13:02:02;;;;;;;;;;;14.10;99.90;;;;;;5115657;27;20803;-85
2023/10/30 13:04:29;;;;;;;;;;;14.20;99.90;;;;;;5116087;27;20077;-88
2023/10/30 13:06:56;;;;;;;;;;;14.20;99.90;;;;;;5113577;27;19974;-88
2023/10/30 13:09:23;;;;;;;;;;;14.20;99.90;;;;;;5120211;27;20166;-86
2023/10/30 13:11:50;;;;;;;;;;;14.20;99.90;;;;;;5111973;27;20002;-86
2023/10/30 13:14:18;;;;;;;;;;;14.20;99.90;;;;;;5120607;27;19978;-89
2023/10/30 13:16:45;;;;;;;;;;;14.20;99.90;;;;;;5117398;27;19998;-89
2023/10/30 13:19:11;;;;;;;;;;;14.20;99.90;;;;;;5120027;27;20028;-87
2023/10/30 13:21:39;;;;;;;;;;;14.20;99.90;;;;;;5118947;27;20058;-86
2023/10/30 13:24:07;;;;;;;;;;;14.30;99.90;;;;;;5117208;27;20479;-85
2023/10/30 13:26:34;;;;;;;;;;;14.20;99.90;;;;;;5116231;27;20326;-87
2023/10/30 13:29:00;;;;;;;;;;;14.20;99.90;;;;;;5119096;27;20078;-86
2023/10/30 13:31:28;;;;;;;;;;;14.20;99.90;;;;;;5113829;27;20005;-88
2023/10/30 13:33:55;;;;;;;;;;;14.20;99.90;;;;;;5119870;27;19994;-87
2023/10/30 13:36:22;;;;;;;;;;;14.30;99.90;;;;;;5116940;27;19979;-86
2023/10/30 13:38:49;;;;;;;;;;;14.30;99.90;;;;;;5114159;27;20439;-85
2023/10/30 13:41:16;;;;;;;;;;;14.30;99.90;;;;;;5114752;27;19982;-86
2023/10/30 13:43:45;;;;;;;;;;;14.30;99.90;;;;;;5110424;27;19990;-86
2023/10/30 13:46:12;;;;;;;;;;;14.20;99.90;;;;;;5115306;27;19990;-85
2023/10/30 13:48:40;;;;;;;;;;;14.30;99.90;;;;;;5117179;27;19997;-87
2023/10/30 13:51:06;;;;;;;;;;;14.30;99.90;;;;;;5117943;27;20162;-85
2023/10/30 13:53:33;;;;;;;;;;;14.30;99.90;;;;;;5116253;27;20342;-90
2023/10/30 13:56:00;;;;;;;;;;;14.30;99.90;;;;;;5116988;27;20499;-84
2023/10/30 13:58:26;;;;;;;;;;;14.30;99.90;;;;;;5119628;27;20073;-87
2023/10/30 14:00:53;;;;;;;;;;;14.30;99.90;;;;;;5116031;27;20261;-85
2023/10/30 14:03:20;;;;;;;;;;;14.30;99.90;;;;;;5113907;27;20475;-86
2023/10/30 14:05:51;;;;;;;;;;;14.30;99.90;;;;;;5118484;27;21599;-87
2023/10/30 14:08:18;;;;;;;;;;;14.30;99.90;;;;;;5116003;27;20073;-86
2023/10/30 14:10:45;;;;;;;;;;;14.30;99.90;;;;;;5115363;27;20546;-90
2023/10/30 14:13:11;;;;;;;;;;;14.30;99.90;;;;;;5123387;27;20059;-85
2023/10/30 14:15:38;;;;;;;;;;;14.30;99.90;;;;;;5116503;27;20001;-87
2023/10/30 14:18:05;;;;;;;;;;;14.30;99.90;;;;;;5116117;27;19986;-86